Time;durP1;ratioP1;P1;durP2;ratioP2;P2;SDS_P1;SDS_P2;PMS_P1;PMS_P2;Temp;Humidity;BMP_temperature;BMP_pressure;BME280_temperature;BME280_humidity;BME280_pressure;Samples;Min_cycle;Max_cycle;Signal;HPM_P1;HPM_P2
2023/08/30 07:15:30;;;;;;;5.57;3.67;;;;;;;;;;10588235;28;20048;-88
2023/08/30 07:20:57;;;;;;;5.88;4.40;;;;;;;;;;10507047;28;20116;-85
2023/08/30 07:26:02;;;;;;;6.28;4.72;;;;;;;;;;10493965;28;20032;-84
2023/08/30 07:37:26;;;;;;;7.53;5.68;;;;;;;;;;10508827;28;20036;-82
2023/08/30 07:48:57;;;;;;;9.38;8.00;;;;;;;;;;10398846;28;20508;-83
2023/08/30 08:00:14;;;;;;;8.02;5.28;;;;;;;;;;10368614;28;20037;-83
2023/08/30 08:05:38;;;;;;;7.15;5.90;;;;;;;;;;10514881;28;20047;-83
2023/08/30 08:16:53;;;;;;;9.85;6.05;;;;;;;;;;10346087;28;20461;-84
2023/08/30 11:07:05;;;;;;;6.28;3.50;;;;;;;;;;10338317;28;20034;-86
2023/08/30 11:35:47;;;;;;;3.97;3.25;;;;;;;;;;10271323;28;20071;-85
2023/08/30 12:09:32;;;;;;;4.35;3.25;;;;;;;;;;10504211;23;20050;-85
2023/08/30 12:14:34;;;;;;;5.05;3.08;;;;;;;;;;10392869;28;20034;-82
2023/08/30 12:19:35;;;;;;;4.38;3.10;;;;;;;;;;10412971;28;20037;-82
2023/08/30 12:24:46;;;;;;;4.07;2.90;;;;;;;;;;10416163;28;20046;-82
2023/08/30 12:29:47;;;;;;;4.25;2.72;;;;;;;;;;10425739;28;20057;-82
2023/08/30 12:34:48;;;;;;;4.78;2.78;;;;;;;;;;10417861;28;20037;-83
2023/08/30 12:39:49;;;;;;;3.70;3.05;;;;;;;;;;10428447;28;20022;-83
2023/08/30 12:44:50;;;;;;;3.58;2.60;;;;;;;;;;10413993;28;20037;-84
2023/08/30 12:49:51;;;;;;;5.18;2.70;;;;;;;;;;10411653;28;20061;-83
2023/08/30 12:54:53;;;;;;;4.35;2.45;;;;;;;;;;10412653;28;20575;-83
2023/08/30 12:59:55;;;;;;;4.30;2.67;;;;;;;;;;10432273;28;20032;-82
2023/08/30 13:04:56;;;;;;;3.42;2.80;;;;;;;;;;10414034;28;20061;-83
2023/08/30 13:09:57;;;;;;;3.45;2.55;;;;;;;;;;10412335;28;20041;-83
2023/08/30 13:14:58;;;;;;;3.10;2.53;;;;;;;;;;10415841;28;20033;-83
2023/08/30 13:19:59;;;;;;;4.50;2.30;;;;;;;;;;10417504;28;20033;-84
2023/08/30 13:25:00;;;;;;;4.28;2.80;;;;;;;;;;10443239;28;20397;-84
2023/08/30 13:30:02;;;;;;;4.05;2.60;;;;;;;;;;10412586;28;20053;-84
2023/08/30 13:35:03;;;;;;;5.43;2.80;;;;;;;;;;10413074;28;20116;-85
2023/08/30 13:40:05;;;;;;;3.80;2.45;;;;;;;;;;10412004;28;20030;-84
2023/08/30 13:45:09;;;;;;;4.28;2.35;;;;;;;;;;10412460;28;20052;-86
2023/08/30 13:50:11;;;;;;;3.83;2.50;;;;;;;;;;10410666;28;20060;-85
2023/08/30 13:55:12;;;;;;;4.28;2.60;;;;;;;;;;10412179;28;20101;-85
2023/08/30 14:00:13;;;;;;;3.47;2.22;;;;;;;;;;10438672;28;20045;-86
2023/08/30 14:05:14;;;;;;;3.78;2.05;;;;;;;;;;10430962;28;20037;-84
2023/08/30 14:10:18;;;;;;;6.00;2.72;;;;;;;;;;10433227;28;20041;-83
2023/08/30 14:15:19;;;;;;;3.13;2.20;;;;;;;;;;10444869;28;20026;-83
2023/08/30 14:20:20;;;;;;;2.92;2.13;;;;;;;;;;10435981;28;20038;-84
2023/08/30 14:25:21;;;;;;;3.03;2.20;;;;;;;;;;10460107;28;20033;-85
2023/08/30 14:30:22;;;;;;;2.95;2.10;;;;;;;;;;10427718;28;20034;-85
2023/08/30 14:35:24;;;;;;;4.78;2.20;;;;;;;;;;10443007;28;20089;-84
2023/08/30 14:40:25;;;;;;;2.38;1.80;;;;;;;;;;10426100;28;20120;-86
2023/08/30 14:45:26;;;;;;;4.18;2.15;;;;;;;;;;10423398;28;20041;-86
2023/08/30 14:50:27;;;;;;;4.57;2.35;;;;;;;;;;10421259;28;20037;-85
2023/08/30 14:55:28;;;;;;;3.60;2.40;;;;;;;;;;10428471;28;20091;-85
2023/08/30 15:00:29;;;;;;;3.88;2.47;;;;;;;;;;10424061;28;20076;-85
2023/08/30 15:05:30;;;;;;;5.75;2.90;;;;;;;;;;10420654;28;20446;-86
2023/08/30 15:10:31;;;;;;;5.03;2.83;;;;;;;;;;10422122;28;20084;-84
2023/08/30 15:15:32;;;;;;;4.60;2.50;;;;;;;;;;10422726;28;20045;-84
2023/08/30 15:20:33;;;;;;;4.72;2.70;;;;;;;;;;10423416;28;20088;-83
2023/08/30 15:25:34;;;;;;;3.55;2.95;;;;;;;;;;10429203;28;20034;-85
2023/08/30 15:30:35;;;;;;;3.72;2.40;;;;;;;;;;10438528;28;20033;-85
2023/08/30 15:35:42;;;;;;;3.58;2.50;;;;;;;;;;10428113;28;20036;-85
2023/08/30 15:40:44;;;;;;;4.72;2.60;;;;;;;;;;10439199;28;20036;-84
2023/08/30 15:45:45;;;;;;;4.82;2.55;;;;;;;;;;10434681;28;20037;-83
2023/08/30 15:50:46;;;;;;;4.10;2.30;;;;;;;;;;10434024;28;20034;-84
2023/08/30 15:55:47;;;;;;;3.75;2.30;;;;;;;;;;10416418;28;20037;-82
2023/08/30 16:00:52;;;;;;;2.90;2.03;;;;;;;;;;10418475;28;20079;-84
2023/08/30 16:05:56;;;;;;;3.88;2.40;;;;;;;;;;10441752;28;20389;-85
2023/08/30 16:11:00;;;;;;;3.35;2.05;;;;;;;;;;10415297;28;20049;-85
2023/08/30 16:16:07;;;;;;;4.93;2.08;;;;;;;;;;10407169;28;20072;-85
2023/08/30 16:27:27;;;;;;;2.70;2.10;;;;;;;;;;10424732;28;20175;-86
2023/08/30 16:32:54;;;;;;;5.15;3.65;;;;;;;;;;10413054;28;20033;-85
2023/08/30 16:38:37;;;;;;;3.00;2.30;;;;;;;;;;10313986;28;20153;-86
2023/08/30 16:44:03;;;;;;;3.33;2.47;;;;;;;;;;10316449;28;20031;-87
2023/08/30 16:49:16;;;;;;;5.10;3.25;;;;;;;;;;10433300;28;20065;-87
2023/08/30 17:00:22;;;;;;;4.82;3.53;;;;;;;;;;10434689;28;20120;-87
2023/08/30 17:05:24;;;;;;;;;;;;;;;;;;10397618;28;20057;-87
2023/08/30 17:11:03;;;;;;;3.30;2.40;;;;;;;;;;10431793;28;19913;-87
2023/08/30 17:16:56;;;;;;;3.70;2.70;;;;;;;;;;10429842;28;20444;-87
2023/08/30 17:51:36;;;;;;;2.50;2.28;;;;;;;;;;10429053;28;20067;-87
2023/08/30 18:08:54;;;;;;;5.07;3.80;;;;;;;;;;10383637;28;20038;-87
2023/08/30 18:14:19;;;;;;;5.40;3.90;;;;;;;;;;10373712;28;20508;-86
2023/08/30 18:19:21;;;;;;;5.07;3.17;;;;;;;;;;10367937;28;20038;-86
2023/08/30 18:24:36;;;;;;;5.55;2.80;;;;;;;;;;10369293;28;20065;-87
2023/08/30 18:30:13;;;;;;;4.45;2.47;;;;;;;;;;10354666;28;20034;-87
2023/08/30 18:35:21;;;;;;;4.53;2.30;;;;;;;;;;10368074;28;20080;-86
2023/08/30 18:40:30;;;;;;;6.22;2.92;;;;;;;;;;10365628;28;20075;-86
2023/08/30 18:45:56;;;;;;;6.05;2.78;;;;;;;;;;10378867;28;20421;-87
2023/08/30 19:02:26;;;;;;;8.20;3.20;;;;;;;;;;10517318;23;20127;-86
